createdAt,value
2022-10-21T00:01:05.396Z,69.80
2022-10-21T00:03:34.809Z,70.50
2022-10-21T00:06:03.247Z,72.00
2022-10-21T00:08:31.258Z,70.40
2022-10-21T00:11:00.569Z,70.70
2022-10-21T00:13:30.293Z,70.20
2022-10-21T00:16:03.246Z,71.00
2022-10-21T00:18:32.368Z,72.40
2022-10-21T00:21:05.581Z,72.00
2022-10-21T00:23:33.738Z,71.20
2022-10-21T00:26:02.198Z,71.50
2022-10-21T00:28:30.281Z,71.90
2022-10-21T00:30:58.963Z,71.30
2022-10-21T00:33:29.052Z,72.70
2022-10-21T00:35:59.743Z,73.40
2022-10-21T00:38:29.561Z,76.50
2022-10-21T00:40:57.941Z,80.30
2022-10-21T00:43:26.826Z,82.60
2022-10-21T00:45:58.537Z,86.20
2022-10-21T00:48:33.153Z,88.00
2022-10-21T00:51:05.093Z,90.60
2022-10-21T00:53:36.412Z,91.40
2022-10-21T00:56:14.090Z,91.10
2022-10-21T00:58:47.584Z,91.60
2022-10-21T01:01:19.229Z,91.90
2022-10-21T01:03:50.156Z,91.40
2022-10-21T01:06:21.789Z,90.50
2022-10-21T01:08:52.951Z,88.70
2022-10-21T01:11:22.273Z,86.50
2022-10-21T01:14:14.204Z,84.60
2022-10-21T01:16:51.518Z,84.60
2022-10-21T01:19:52.581Z,83.40
2022-10-21T01:22:36.902Z,82.80
2022-10-21T01:25:27.046Z,84.40
2022-10-21T01:28:03.077Z,86.00
2022-10-21T01:30:41.135Z,86.40
2022-10-21T01:33:24.321Z,85.60
2022-10-21T01:35:58.913Z,85.20
2022-10-21T01:38:35.251Z,85.10
2022-10-21T01:41:10.817Z,84.40
2022-10-21T01:43:46.534Z,82.70
2022-10-21T01:46:23.701Z,81.90
2022-10-21T01:48:55.996Z,82.10
2022-10-21T01:51:26.751Z,80.30
2022-10-21T01:54:01.321Z,80.40
2022-10-21T01:56:30.580Z,79.00
2022-10-21T01:58:59.609Z,77.90
2022-10-21T02:01:29.992Z,78.70
2022-10-21T02:04:02.276Z,78.70
2022-10-21T02:06:30.417Z,79.60
2022-10-21T02:08:58.618Z,81.10
2022-10-21T02:11:26.762Z,82.80
2022-10-21T02:13:59.058Z,81.90
2022-10-21T02:16:31.360Z,82.00
2022-10-21T02:19:01.531Z,81.60
2022-10-21T02:21:32.767Z,80.80
2022-10-21T02:24:06.423Z,82.20
2022-10-21T02:26:34.454Z,82.70
2022-10-21T02:29:02.761Z,83.00
2022-10-21T02:31:44.169Z,82.80
2022-10-21T02:34:27.096Z,83.90
2022-10-21T02:36:59.532Z,84.60
2022-10-21T02:39:44.687Z,85.70
2022-10-21T02:42:17.980Z,85.20
2022-10-21T02:44:45.999Z,86.90
2022-10-21T02:47:16.709Z,89.00
2022-10-21T02:49:45.114Z,90.10
2022-10-21T02:52:13.608Z,90.90
2022-10-21T02:54:41.881Z,91.00
2022-10-21T02:57:09.978Z,91.10
2022-10-21T02:59:50.986Z,91.50
2022-10-21T03:02:41.004Z,91.50
2022-10-21T03:05:10.781Z,91.70
2022-10-21T03:07:39.011Z,90.90
2022-10-21T03:10:08.077Z,90.30
2022-10-21T03:12:36.108Z,89.60
2022-10-21T03:15:06.929Z,89.30
2022-10-21T03:17:36.520Z,87.20
2022-10-21T03:20:05.096Z,87.40
2022-10-21T03:22:34.487Z,86.00
2022-10-21T03:25:02.582Z,84.50
2022-10-21T03:30:04.876Z,82.60
2022-10-21T03:32:33.091Z,84.30
2022-10-21T03:35:02.741Z,85.90
2022-10-21T03:37:30.737Z,87.20
2022-10-21T03:40:00.013Z,87.10
2022-10-21T03:42:29.246Z,86.10
2022-10-21T03:45:04.006Z,85.20
2022-10-21T03:47:32.075Z,83.30
2022-10-21T03:50:00.109Z,83.30
2022-10-21T03:52:29.537Z,83.10
2022-10-21T03:54:57.586Z,82.80
2022-10-21T03:57:25.597Z,81.60
2022-10-21T03:59:53.627Z,80.80
2022-10-21T04:02:21.760Z,79.00
2022-10-21T04:04:56.011Z,76.80
2022-10-21T04:07:24.052Z,77.30
2022-10-21T04:09:53.803Z,76.70
2022-10-21T04:12:21.786Z,76.70
2022-10-21T04:14:49.814Z,76.50
2022-10-21T04:17:17.844Z,84.10
2022-10-21T04:19:45.863Z,87.40
2022-10-21T04:22:13.893Z,90.20
2022-10-21T04:24:42.029Z,89.80
2022-10-21T04:27:11.402Z,90.30
2022-10-21T04:29:39.450Z,90.70
2022-10-21T04:32:08.521Z,91.20
2022-10-21T04:34:36.529Z,91.30
2022-10-21T04:37:05.309Z,91.00
2022-10-21T04:39:34.041Z,90.70
2022-10-21T04:42:02.161Z,90.70
2022-10-21T04:44:31.512Z,90.70
2022-10-21T04:46:59.606Z,90.10
2022-10-21T04:49:34.017Z,89.90
2022-10-21T04:52:03.006Z,88.90
2022-10-21T04:54:30.993Z,88.50
2022-10-21T04:56:59.304Z,89.80
2022-10-21T04:59:27.313Z,90.10
2022-10-21T05:01:56.850Z,89.50
2022-10-21T05:04:24.918Z,89.00
2022-10-21T05:06:53.395Z,87.80
2022-10-21T05:09:21.422Z,90.30
2022-10-21T05:11:49.494Z,90.60
2022-10-21T05:14:21.546Z,90.90
2022-10-21T05:16:50.859Z,91.20
2022-10-21T05:19:20.381Z,91.10
2022-10-21T05:21:48.453Z,91.30
2022-10-21T05:24:16.565Z,91.30
2022-10-21T05:26:44.864Z,91.70
2022-10-21T05:29:12.916Z,92.30
2022-10-21T05:31:40.925Z,91.70
2022-10-21T05:34:08.994Z,90.40
2022-10-21T05:36:40.654Z,86.00
2022-10-21T05:39:11.443Z,85.10
2022-10-21T05:41:41.915Z,83.70
2022-10-21T05:44:12.725Z,82.20
2022-10-21T05:46:40.918Z,83.80
2022-10-21T05:49:09.529Z,84.30
2022-10-21T05:51:39.036Z,83.80
2022-10-21T05:54:07.102Z,85.70
2022-10-21T05:56:35.193Z,85.90
2022-10-21T05:59:05.489Z,86.00
2022-10-21T06:01:36.124Z,86.00
2022-10-21T06:04:04.348Z,86.80
2022-10-21T06:06:32.357Z,87.20
2022-10-21T06:09:02.029Z,89.50
2022-10-21T06:11:30.149Z,88.80
2022-10-21T06:13:58.473Z,87.80
2022-10-21T06:16:26.472Z,88.60
2022-10-21T06:18:54.535Z,93.20
2022-10-21T06:21:22.748Z,93.60
2022-10-21T06:23:54.942Z,94.50
2022-10-21T06:26:25.185Z,93.60
2022-10-21T06:28:53.234Z,92.80
2022-10-21T06:31:22.748Z,91.80
2022-10-21T06:33:50.828Z,92.60
2022-10-21T06:36:22.888Z,92.50
2022-10-21T06:38:51.301Z,92.70
2022-10-21T06:41:20.072Z,91.30
2022-10-21T06:43:49.598Z,88.90
2022-10-21T06:46:18.237Z,86.40
2022-10-21T06:48:46.273Z,85.30
2022-10-21T06:51:16.062Z,82.80
2022-10-21T06:53:44.954Z,81.70
2022-10-21T06:56:21.095Z,73.40
2022-10-21T06:58:51.367Z,69.60
2022-10-21T07:01:33.428Z,66.20
2022-10-21T07:04:09.373Z,67.50
2022-10-21T07:06:37.779Z,67.90
2022-10-21T07:09:10.496Z,68.90
2022-10-21T07:11:39.161Z,64.10
2022-10-21T07:14:08.914Z,57.80
2022-10-21T07:16:38.416Z,58.00
2022-10-21T07:19:07.174Z,59.70
2022-10-21T07:21:35.302Z,61.40
2022-10-21T07:24:03.373Z,63.00
2022-10-21T07:26:35.166Z,66.10
2022-10-21T07:29:03.466Z,65.90
2022-10-21T07:31:38.556Z,72.00
2022-10-21T07:34:08.147Z,65.50
2022-10-21T07:36:42.580Z,39.20
2022-10-21T07:39:13.483Z,1.00
2022-10-21T07:41:43.913Z,1.00
2022-10-21T07:44:12.131Z,1.00
2022-10-21T07:46:42.765Z,1.00
2022-10-21T07:49:19.116Z,99.90
2022-10-21T07:51:50.502Z,99.90
2022-10-21T07:54:19.805Z,99.90
2022-10-21T07:56:49.566Z,1.00
2022-10-21T07:59:19.201Z,1.00
2022-10-21T08:04:20.762Z,99.90
2022-10-21T08:06:50.046Z,99.90
2022-10-21T08:09:19.271Z,99.90
2022-10-21T08:11:47.686Z,99.90
2022-10-21T08:14:16.621Z,99.90
2022-10-21T08:16:44.651Z,99.90
2022-10-21T08:19:19.828Z,99.90
2022-10-21T08:21:48.249Z,95.80
2022-10-21T08:24:18.573Z,1.00
2022-10-21T08:26:46.542Z,1.00
2022-10-21T08:29:14.813Z,1.00
2022-10-21T08:31:42.852Z,1.00
2022-10-21T08:34:10.946Z,53.00
2022-10-21T08:36:40.860Z,94.30
2022-10-21T08:39:08.999Z,99.90
2022-10-21T08:42:13.151Z,99.90
2022-10-21T08:44:47.908Z,99.90
2022-10-21T08:47:25.875Z,99.90
2022-10-21T08:49:59.306Z,99.90
2022-10-21T08:52:35.941Z,99.90
2022-10-21T08:55:05.636Z,99.90
2022-10-21T08:57:35.967Z,99.90
2022-10-21T09:00:14.823Z,99.90
2022-10-21T09:02:56.084Z,99.90
2022-10-21T09:05:37.141Z,99.90
2022-10-21T09:08:16.471Z,99.90
2022-10-21T09:10:57.252Z,99.90
2022-10-21T09:13:56.204Z,99.90
2022-10-21T09:16:32.373Z,99.90
2022-10-21T09:19:12.763Z,99.90
2022-10-21T09:22:01.503Z,99.90
2022-10-21T09:24:48.430Z,99.90
2022-10-21T09:27:22.761Z,99.90
2022-10-21T09:30:03.327Z,99.90
2022-10-21T09:32:34.416Z,99.90
2022-10-21T09:35:07.414Z,99.90
2022-10-21T09:37:41.983Z,99.90
2022-10-21T09:40:17.021Z,99.90
2022-10-21T09:42:52.247Z,99.90
2022-10-21T09:45:25.891Z,99.90
2022-10-21T09:47:58.189Z,99.90
2022-10-21T09:50:27.129Z,99.90
2022-10-21T09:53:02.500Z,99.90
2022-10-21T09:55:33.145Z,99.90
2022-10-21T09:58:02.732Z,99.90
2022-10-21T10:00:46.678Z,99.90
2022-10-21T10:03:30.825Z,99.90
2022-10-21T10:05:59.224Z,99.90
2022-10-21T10:08:32.589Z,99.90
2022-10-21T10:11:24.179Z,99.90
2022-10-21T10:13:54.397Z,99.90
2022-10-21T10:16:27.405Z,99.90
2022-10-21T10:19:12.595Z,99.90
2022-10-21T10:21:40.642Z,99.90
2022-10-21T10:24:18.381Z,99.90
2022-10-21T10:26:48.914Z,99.90
2022-10-21T10:29:26.767Z,99.90
2022-10-21T10:32:04.177Z,99.90
2022-10-21T10:34:35.507Z,99.90
2022-10-21T10:37:07.851Z,99.90
2022-10-21T10:39:39.860Z,99.90
2022-10-21T10:42:09.819Z,99.90
2022-10-21T10:44:40.739Z,99.90
2022-10-21T10:47:19.118Z,99.90
2022-10-21T10:49:47.834Z,99.90
2022-10-21T10:52:21.463Z,99.90
2022-10-21T10:54:50.391Z,99.90
2022-10-21T10:57:29.904Z,99.90
2022-10-21T11:00:15.273Z,99.90
2022-10-21T11:02:55.210Z,99.90
2022-10-21T11:05:28.857Z,99.90
2022-10-21T11:08:00.027Z,99.90
2022-10-21T11:10:33.328Z,99.90
2022-10-21T11:13:04.585Z,99.90
2022-10-21T11:15:47.938Z,99.90
2022-10-21T11:18:24.916Z,99.90
2022-10-21T11:21:06.247Z,99.90
2022-10-21T11:24:06.302Z,99.90
2022-10-21T11:26:41.900Z,99.90
2022-10-21T11:29:29.350Z,99.90
2022-10-21T11:32:11.580Z,99.90
2022-10-21T11:34:53.958Z,99.90
2022-10-21T11:37:32.051Z,99.90
2022-10-21T11:40:10.575Z,99.90
2022-10-21T11:42:42.822Z,99.90
2022-10-21T11:45:31.954Z,99.90
2022-10-21T11:48:08.804Z,99.90
2022-10-21T11:50:45.238Z,99.90
2022-10-21T11:53:50.261Z,99.90
2022-10-21T11:56:25.082Z,99.90
2022-10-21T11:59:06.837Z,99.90
2022-10-21T12:01:48.735Z,99.90
2022-10-21T12:04:43.227Z,99.90
2022-10-21T12:07:25.239Z,99.90
2022-10-21T12:09:57.961Z,99.90
2022-10-21T12:12:33.198Z,99.90
2022-10-21T12:15:04.209Z,99.90
2022-10-21T12:20:22.866Z,99.90
2022-10-21T12:22:57.228Z,99.90
2022-10-21T12:25:37.521Z,99.90
2022-10-21T12:28:11.534Z,99.90
2022-10-21T12:30:45.071Z,99.90
2022-10-21T12:33:36.741Z,99.90
2022-10-21T12:36:19.005Z,99.90
2022-10-21T12:38:50.014Z,99.90
2022-10-21T12:41:34.427Z,99.90
2022-10-21T12:44:16.028Z,99.90
2022-10-21T12:46:46.661Z,99.90
2022-10-21T12:49:25.169Z,99.90
2022-10-21T12:52:03.451Z,99.90
2022-10-21T12:54:37.533Z,99.90
2022-10-21T12:57:07.662Z,99.90
2022-10-21T12:59:44.232Z,99.90
2022-10-21T13:02:28.454Z,99.90
2022-10-21T13:04:59.829Z,99.90
2022-10-21T13:08:12.086Z,99.90
2022-10-21T13:10:41.798Z,99.90
2022-10-21T13:13:35.539Z,99.90
2022-10-21T13:16:35.383Z,99.90
2022-10-21T13:19:05.490Z,99.90
2022-10-21T13:21:44.716Z,99.90
2022-10-21T13:24:24.756Z,99.90
2022-10-21T13:26:57.111Z,99.90
2022-10-21T13:29:41.746Z,99.90
2022-10-21T13:32:28.468Z,99.90
2022-10-21T13:35:13.247Z,99.90
2022-10-21T13:37:52.798Z,99.90
2022-10-21T13:40:22.996Z,99.90
2022-10-21T13:42:57.797Z,99.90
2022-10-21T13:45:28.654Z,99.90
2022-10-21T13:48:08.347Z,99.90
2022-10-21T13:50:40.863Z,99.90
2022-10-21T13:53:24.781Z,99.90
2022-10-21T13:55:58.312Z,99.90
2022-10-21T13:58:29.140Z,99.90
2022-10-21T14:01:10.329Z,99.90
2022-10-21T14:03:38.823Z,99.90
2022-10-21T14:06:09.534Z,99.90
2022-10-21T14:08:42.244Z,99.90
2022-10-21T14:11:17.428Z,99.90
2022-10-21T14:13:49.242Z,99.90
2022-10-21T14:16:23.279Z,99.90
2022-10-21T14:18:52.237Z,99.90
2022-10-21T14:21:23.741Z,99.90
2022-10-21T14:23:54.804Z,99.90
2022-10-21T14:26:33.294Z,99.90
2022-10-21T14:29:04.148Z,99.90
2022-10-21T14:31:32.791Z,99.90
2022-10-21T14:34:00.898Z,99.90
2022-10-21T14:36:30.215Z,99.90
2022-10-21T14:39:00.950Z,99.90
2022-10-21T14:41:35.062Z,99.90
2022-10-21T14:44:13.572Z,99.90
2022-10-21T14:46:43.993Z,99.90
2022-10-21T14:49:23.614Z,99.90
2022-10-21T14:51:57.240Z,99.90
2022-10-21T14:54:30.336Z,99.90
2022-10-21T14:57:01.659Z,99.90
2022-10-21T14:59:37.377Z,99.90
2022-10-21T15:02:06.974Z,1.00
2022-10-21T15:04:51.697Z,1.00
2022-10-21T15:07:28.841Z,1.00
2022-10-21T15:10:14.090Z,1.00
2022-10-21T15:12:43.456Z,1.00
2022-10-21T15:15:44.006Z,1.00
2022-10-21T15:18:15.654Z,1.00
2022-10-21T15:20:59.482Z,1.00
2022-10-21T15:23:31.059Z,1.00
2022-10-21T15:26:01.272Z,1.00
2022-10-21T15:28:34.490Z,1.00
2022-10-21T15:31:16.401Z,1.00
2022-10-21T15:33:44.418Z,1.00
2022-10-21T15:36:13.123Z,1.00
2022-10-21T15:38:46.527Z,1.00
2022-10-21T15:41:16.342Z,1.00
2022-10-21T15:43:45.304Z,1.00
2022-10-21T15:46:14.669Z,1.00
2022-10-21T15:48:42.645Z,1.00
2022-10-21T15:51:10.648Z,1.00
2022-10-21T15:53:40.984Z,1.00
2022-10-21T15:56:13.728Z,1.00
2022-10-21T15:58:44.141Z,1.00
2022-10-21T16:01:15.559Z,1.00
2022-10-21T16:03:44.441Z,1.00
2022-10-21T16:06:16.996Z,1.00
2022-10-21T16:08:45.285Z,1.00
2022-10-21T16:11:18.898Z,1.00
2022-10-21T16:13:53.862Z,1.00
2022-10-21T16:16:32.341Z,1.00
2022-10-21T16:19:00.693Z,1.00
2022-10-21T16:21:28.667Z,1.00
2022-10-21T16:23:58.372Z,1.00
2022-10-21T16:26:28.960Z,1.00
2022-10-21T16:29:00.925Z,1.00
2022-10-21T16:31:30.700Z,1.00
2022-10-21T16:34:01.024Z,1.00
2022-10-21T16:36:32.242Z,1.00
2022-10-21T16:39:00.267Z,1.00
2022-10-21T16:41:28.845Z,1.00
2022-10-21T16:43:57.364Z,1.90
2022-10-21T16:46:27.742Z,4.00
2022-10-21T16:48:57.955Z,4.90
2022-10-21T16:51:28.573Z,1.80
2022-10-21T16:53:56.586Z,2.30
2022-10-21T16:56:25.127Z,5.80
2022-10-21T16:58:53.695Z,6.40
2022-10-21T17:01:23.953Z,5.00
2022-10-21T17:03:52.168Z,4.20
2022-10-21T17:06:24.654Z,4.50
2022-10-21T17:08:54.582Z,7.90
2022-10-21T17:11:25.284Z,8.50
2022-10-21T17:13:53.346Z,12.30
2022-10-21T17:16:24.604Z,13.30
2022-10-21T17:18:52.618Z,13.80
2022-10-21T17:21:24.324Z,19.30
2022-10-21T17:23:59.407Z,17.40
2022-10-21T17:26:28.179Z,19.80
2022-10-21T17:28:56.915Z,28.70
2022-10-21T17:31:26.940Z,24.20
2022-10-21T17:33:57.445Z,25.50
2022-10-21T17:36:27.246Z,24.30
2022-10-21T17:39:01.382Z,27.20
2022-10-21T17:41:29.644Z,27.20
2022-10-21T17:43:57.721Z,28.70
2022-10-21T17:46:26.571Z,28.60
2022-10-21T17:48:56.608Z,32.00
2022-10-21T17:51:26.904Z,32.20
2022-10-21T17:53:55.898Z,32.30
2022-10-21T17:56:24.499Z,34.50
2022-10-21T17:58:53.614Z,34.20
2022-10-21T18:01:24.273Z,36.00
2022-10-21T18:03:52.742Z,35.80
2022-10-21T18:06:21.461Z,37.80
2022-10-21T18:08:50.966Z,40.40
2022-10-21T18:11:20.778Z,41.30
2022-10-21T18:13:56.212Z,42.40
2022-10-21T18:16:26.160Z,45.00
2022-10-21T18:18:57.257Z,44.30
2022-10-21T18:21:34.409Z,45.00
2022-10-21T18:24:07.460Z,46.20
2022-10-21T18:26:39.597Z,46.50
2022-10-21T18:29:07.627Z,50.70
2022-10-21T18:31:37.310Z,51.50
2022-10-21T18:34:09.047Z,55.60
2022-10-21T18:36:37.345Z,54.40
2022-10-21T18:39:07.021Z,54.50
2022-10-21T18:41:35.220Z,67.70
2022-10-21T18:44:08.093Z,71.10
2022-10-21T18:46:37.558Z,76.80
2022-10-21T18:49:07.288Z,75.50
2022-10-21T18:51:35.603Z,72.60
2022-10-21T18:54:03.749Z,70.90
2022-10-21T18:56:33.317Z,78.00
2022-10-21T18:59:01.962Z,72.00
2022-10-21T19:01:30.094Z,70.90
2022-10-21T19:03:58.280Z,70.40
2022-10-21T19:06:36.939Z,71.80
2022-10-21T19:09:08.437Z,71.30
2022-10-21T19:11:37.892Z,70.90
2022-10-21T19:14:08.448Z,73.10
2022-10-21T19:16:39.742Z,73.20
2022-10-21T19:19:08.491Z,75.10
2022-10-21T19:21:39.186Z,76.10
2022-10-21T19:24:08.165Z,76.20
2022-10-21T19:26:40.376Z,77.20
2022-10-21T19:29:10.652Z,79.10
2022-10-21T19:31:38.924Z,83.10
2022-10-21T19:34:07.630Z,83.50
2022-10-21T19:36:35.789Z,83.00
2022-10-21T19:39:03.953Z,82.40
2022-10-21T19:41:32.230Z,83.40
2022-10-21T19:44:04.014Z,87.40
2022-10-21T19:46:40.478Z,85.80
2022-10-21T19:49:10.161Z,85.70
2022-10-21T19:51:38.790Z,88.50
2022-10-21T19:54:07.896Z,87.10
2022-10-21T19:56:36.575Z,89.80
2022-10-21T19:59:07.015Z,89.10
2022-10-21T20:01:35.570Z,93.20
2022-10-21T20:04:04.322Z,91.10
2022-10-21T20:06:33.691Z,90.80
2022-10-21T20:09:07.280Z,90.90
2022-10-21T20:11:36.041Z,92.30
2022-10-21T20:14:09.602Z,93.20
2022-10-21T20:16:39.281Z,91.90
2022-10-21T20:19:08.558Z,91.40
2022-10-21T20:21:37.373Z,91.50
2022-10-21T20:24:06.501Z,92.60
2022-10-21T20:26:35.575Z,94.50
2022-10-21T20:29:05.067Z,96.70
2022-10-21T20:31:33.087Z,97.30
2022-10-21T20:34:01.238Z,97.00
2022-10-21T20:36:32.406Z,95.80
2022-10-21T20:39:02.201Z,94.70
2022-10-21T20:41:34.033Z,94.70
2022-10-21T20:44:15.485Z,95.00
2022-10-21T20:46:44.668Z,95.60
2022-10-21T20:49:13.509Z,95.30
2022-10-21T20:51:43.241Z,95.80
2022-10-21T20:54:14.583Z,95.40
2022-10-21T20:56:43.620Z,95.60
2022-10-21T20:59:15.898Z,95.40
2022-10-21T21:01:45.977Z,95.70
2022-10-21T21:04:16.458Z,95.20
2022-10-21T21:06:46.268Z,95.10
2022-10-21T21:09:33.545Z,95.10
2022-10-21T21:12:04.408Z,94.60
2022-10-21T21:14:34.018Z,94.50
2022-10-21T21:17:02.000Z,94.10
2022-10-21T21:19:30.523Z,94.60
2022-10-21T21:22:00.866Z,94.70
2022-10-21T21:24:28.877Z,95.10
2022-10-21T21:26:56.945Z,96.30
2022-10-21T21:29:25.012Z,95.60
2022-10-21T21:31:54.418Z,95.60
2022-10-21T21:34:22.405Z,95.30
2022-10-21T21:36:50.616Z,95.40
2022-10-21T21:39:18.892Z,94.90
2022-10-21T21:41:47.165Z,94.80
2022-10-21T21:44:15.678Z,95.40
2022-10-21T21:46:43.713Z,96.30
2022-10-21T21:49:13.092Z,96.50
2022-10-21T21:51:41.534Z,96.90
2022-10-21T21:54:09.601Z,97.70
2022-10-21T21:56:37.666Z,98.00
2022-10-21T21:59:05.763Z,98.10
2022-10-21T22:01:33.982Z,98.80
2022-10-21T22:04:02.371Z,99.00
2022-10-21T22:06:33.677Z,99.50
2022-10-21T22:09:04.361Z,99.90
2022-10-21T22:11:33.595Z,99.90
2022-10-21T22:14:01.654Z,99.90
2022-10-21T22:16:31.020Z,99.90
2022-10-21T22:19:02.584Z,99.80
2022-10-21T22:21:32.877Z,99.90
2022-10-21T22:24:01.230Z,99.80
2022-10-21T22:26:30.017Z,99.40
2022-10-21T22:29:00.600Z,99.60
2022-10-21T22:31:30.512Z,99.50
2022-10-21T22:34:04.354Z,99.80
2022-10-21T22:36:36.057Z,99.90
2022-10-21T22:39:04.502Z,99.90
2022-10-21T22:41:32.539Z,99.80
2022-10-21T22:44:01.643Z,99.90
2022-10-21T22:46:34.262Z,99.90
2022-10-21T22:49:03.833Z,99.90
2022-10-21T22:51:39.611Z,99.90
2022-10-21T22:54:19.310Z,99.90
2022-10-21T22:56:57.697Z,99.90
2022-10-21T22:59:25.705Z,99.90
2022-10-21T23:01:53.725Z,99.90
2022-10-21T23:04:23.291Z,99.90
2022-10-21T23:06:52.083Z,99.90
2022-10-21T23:09:21.458Z,99.90
2022-10-21T23:11:49.470Z,99.90
2022-10-21T23:14:17.461Z,99.90
2022-10-21T23:16:45.438Z,99.90
2022-10-21T23:19:13.541Z,99.90
2022-10-21T23:21:42.362Z,99.90
2022-10-21T23:24:10.739Z,99.90
2022-10-21T23:26:46.555Z,99.90
2022-10-21T23:29:14.632Z,99.90
2022-10-21T23:31:42.954Z,99.90
2022-10-21T23:34:11.286Z,99.90
2022-10-21T23:36:39.283Z,99.90
2022-10-21T23:39:07.363Z,99.90
2022-10-21T23:41:41.537Z,99.90
2022-10-21T23:44:11.262Z,99.90
2022-10-21T23:46:39.246Z,99.90
2022-10-21T23:49:07.707Z,99.90
2022-10-21T23:51:35.808Z,99.90
2022-10-21T23:54:04.058Z,99.90
2022-10-21T23:56:32.461Z,99.90
2022-10-21T23:59:01.077Z,99.90
